createdAt,value
2017-09-13T00:00:40.357Z,0
2017-09-13T00:01:50.393Z,0
2017-09-13T00:03:01.083Z,0
2017-09-13T00:04:11.433Z,0
2017-09-13T00:05:21.453Z,0
2017-09-13T00:06:31.477Z,0
2017-09-13T00:07:41.881Z,0
2017-09-13T00:08:52.222Z,0
2017-09-13T00:10:02.256Z,0
2017-09-13T00:11:12.609Z,0
2017-09-13T00:12:22.625Z,0
2017-09-13T00:13:32.702Z,0
2017-09-13T00:14:42.749Z,0
2017-09-13T00:15:53.095Z,0
2017-09-13T00:17:03.461Z,0
2017-09-13T00:18:13.853Z,0
2017-09-13T00:19:24.212Z,0
2017-09-13T00:20:34.236Z,0
2017-09-13T00:21:44.250Z,0
2017-09-13T00:22:54.590Z,0
2017-09-13T00:24:04.627Z,0
2017-09-13T00:25:15.025Z,0
2017-09-13T00:26:25.368Z,0
2017-09-13T00:27:35.712Z,0
2017-09-13T00:28:46.064Z,0
2017-09-13T00:29:56.421Z,0
2017-09-13T00:31:13.368Z,0
2017-09-13T00:32:23.711Z,0
2017-09-13T00:33:36.492Z,0
2017-09-13T00:34:46.839Z,0
2017-09-13T00:35:56.870Z,0
2017-09-13T00:37:06.899Z,0
2017-09-13T00:38:17.250Z,0
2017-09-13T00:39:27.591Z,0
2017-09-13T00:40:37.937Z,0
2017-09-13T00:41:47.966Z,0
2017-09-13T00:42:58.355Z,0
2017-09-13T00:44:08.692Z,0
2017-09-13T00:45:19.020Z,0
2017-09-13T00:46:29.796Z,0
2017-09-13T00:47:40.143Z,0
2017-09-13T00:48:50.466Z,0
2017-09-13T00:50:00.821Z,0
2017-09-13T00:51:15.173Z,0
2017-09-13T00:52:25.539Z,0
2017-09-13T00:53:35.584Z,0
2017-09-13T00:54:45.599Z,0
2017-09-13T00:55:55.953Z,0
2017-09-13T00:57:06.296Z,0
2017-09-13T00:58:16.311Z,0
2017-09-13T00:59:26.341Z,0
2017-09-13T01:00:36.928Z,0
2017-09-13T01:01:47.273Z,0
2017-09-13T01:02:57.610Z,0
2017-09-13T01:04:07.633Z,0
2017-09-13T01:05:17.976Z,0
2017-09-13T01:06:28.392Z,0
2017-09-13T01:07:38.753Z,0
2017-09-13T01:08:49.094Z,0
2017-09-13T01:09:59.432Z,0
2017-09-13T01:11:09.774Z,0
2017-09-13T01:12:24.363Z,0
2017-09-13T01:13:34.714Z,0
2017-09-13T01:14:47.615Z,0
2017-09-13T01:16:04.770Z,0
2017-09-13T01:17:15.122Z,0
2017-09-13T01:18:25.469Z,0
2017-09-13T01:19:35.817Z,0
2017-09-13T01:20:46.156Z,0
2017-09-13T01:21:56.495Z,0
2017-09-13T01:23:06.843Z,0
2017-09-13T01:24:17.184Z,0
2017-09-13T01:25:26.886Z,0
2017-09-13T01:26:37.217Z,0
2017-09-13T01:27:47.560Z,0
2017-09-13T01:28:57.641Z,0
2017-09-13T01:30:08.007Z,0
2017-09-13T01:31:18.326Z,0
2017-09-13T01:32:28.665Z,0
2017-09-13T01:33:38.698Z,0
2017-09-13T01:34:48.790Z,0
2017-09-13T01:35:59.137Z,0
2017-09-13T01:37:09.482Z,0
2017-09-13T01:38:19.831Z,0
2017-09-13T01:39:30.387Z,0
2017-09-13T01:40:40.774Z,0
2017-09-13T01:41:51.138Z,0
2017-09-13T01:43:01.479Z,0
2017-09-13T01:44:11.497Z,0
2017-09-13T01:45:21.839Z,0
2017-09-13T01:46:32.231Z,0
2017-09-13T01:47:42.240Z,0
2017-09-13T01:48:55.115Z,0
2017-09-13T01:50:06.104Z,0
2017-09-13T01:51:16.310Z,0
2017-09-13T01:52:26.332Z,0
2017-09-13T01:53:36.351Z,0
2017-09-13T01:54:46.696Z,0
2017-09-13T01:55:56.398Z,0
2017-09-13T01:57:06.408Z,0
2017-09-13T01:58:16.745Z,0
2017-09-13T01:59:27.098Z,0
2017-09-13T02:00:37.124Z,0
2017-09-13T02:01:47.460Z,0
2017-09-13T02:02:57.798Z,0
2017-09-13T02:04:08.154Z,0
2017-09-13T02:05:18.715Z,0
2017-09-13T02:06:28.735Z,0
2017-09-13T02:07:39.079Z,0
2017-09-13T02:08:49.425Z,0
2017-09-13T02:09:59.832Z,0
2017-09-13T02:11:10.179Z,0
2017-09-13T02:12:20.531Z,0
2017-09-13T02:13:30.884Z,0
2017-09-13T02:14:41.227Z,0
2017-09-13T02:15:51.622Z,0
2017-09-13T02:17:01.340Z,0
2017-09-13T02:18:11.391Z,0
2017-09-13T02:19:21.756Z,0
2017-09-13T02:20:31.780Z,0
2017-09-13T02:21:42.120Z,0
2017-09-13T02:22:56.936Z,0
2017-09-13T02:24:06.969Z,0
2017-09-13T02:25:16.994Z,0
2017-09-13T02:26:27.334Z,0
2017-09-13T02:27:37.425Z,0
2017-09-13T02:28:46.818Z,0
2017-09-13T02:29:57.154Z,0
2017-09-13T02:31:07.509Z,0
2017-09-13T02:32:17.215Z,0
2017-09-13T02:33:34.107Z,0
2017-09-13T02:34:44.438Z,0
2017-09-13T02:35:54.767Z,0
2017-09-13T02:37:04.806Z,0
2017-09-13T02:38:15.155Z,0
2017-09-13T02:39:25.246Z,0
2017-09-13T02:40:35.583Z,0
2017-09-13T02:41:45.930Z,0
2017-09-13T02:42:56.268Z,0
2017-09-13T02:44:06.601Z,0
2017-09-13T02:45:17.021Z,0
2017-09-13T02:46:31.068Z,0
2017-09-13T02:47:41.444Z,0
2017-09-13T02:48:51.480Z,0
2017-09-13T02:50:01.823Z,0
2017-09-13T02:51:12.165Z,0
2017-09-13T02:52:22.506Z,0
2017-09-13T02:53:31.892Z,0
2017-09-13T02:54:41.913Z,0
2017-09-13T02:55:52.259Z,0
2017-09-13T02:57:02.599Z,0
2017-09-13T02:58:12.946Z,0
2017-09-13T02:59:23.276Z,0
2017-09-13T03:00:33.622Z,0
2017-09-13T03:01:49.121Z,0
2017-09-13T03:33:51.129Z,0
2017-09-13T03:35:00.819Z,0
2017-09-13T03:36:13.695Z,0
2017-09-13T03:37:24.021Z,0
2017-09-13T03:38:34.365Z,0
2017-09-13T03:39:44.713Z,0
2017-09-13T03:40:55.280Z,0
2017-09-13T03:42:05.615Z,0
2017-09-13T03:43:15.635Z,0
2017-09-13T03:44:25.669Z,0
2017-09-13T03:45:35.744Z,0
2017-09-13T03:46:45.760Z,0
2017-09-13T03:47:55.823Z,0
2017-09-13T03:49:06.162Z,0
2017-09-13T03:50:16.181Z,0
2017-09-13T03:51:26.525Z,0
2017-09-13T03:52:36.874Z,0
2017-09-13T03:53:46.573Z,0
2017-09-13T03:54:56.915Z,0
2017-09-13T03:56:09.496Z,0
2017-09-13T03:57:19.198Z,0
2017-09-13T03:58:31.882Z,0
2017-09-13T03:59:42.223Z,4
2017-09-13T04:00:52.554Z,4
2017-09-13T04:02:02.877Z,0
2017-09-13T04:03:12.950Z,4
2017-09-13T04:04:23.275Z,4
2017-09-13T04:05:33.294Z,4
2017-09-13T04:06:43.616Z,8
2017-09-13T04:07:54.539Z,8
2017-09-13T04:09:04.289Z,8
2017-09-13T04:10:14.621Z,12
2017-09-13T04:11:24.959Z,16
2017-09-13T04:12:38.408Z,16
2017-09-13T04:13:48.433Z,20
2017-09-13T04:14:58.511Z,20
2017-09-13T04:16:08.852Z,28
2017-09-13T04:17:19.401Z,32
2017-09-13T04:18:29.431Z,44
2017-09-13T04:19:39.463Z,48
2017-09-13T04:20:49.801Z,56
2017-09-13T04:22:00.126Z,64
2017-09-13T04:23:09.873Z,76
2017-09-13T04:24:20.265Z,88
2017-09-13T04:25:29.961Z,104
2017-09-13T04:26:40.308Z,116
2017-09-13T04:27:50.647Z,132
2017-09-13T04:29:00.344Z,152
2017-09-13T04:30:10.426Z,168
2017-09-13T04:31:20.771Z,188
2017-09-13T04:32:31.351Z,208
2017-09-13T04:33:41.361Z,236
2017-09-13T04:34:51.722Z,256
2017-09-13T04:36:02.067Z,288
2017-09-13T04:37:12.110Z,312
2017-09-13T04:38:22.134Z,340
2017-09-13T04:39:32.143Z,372
2017-09-13T04:40:42.534Z,564
2017-09-13T04:41:52.931Z,960
2017-09-13T04:43:03.263Z,1240
2017-09-13T04:44:13.607Z,1312
2017-09-13T04:45:23.949Z,1176
2017-09-13T04:46:34.274Z,1076
2017-09-13T04:47:44.603Z,908
2017-09-13T04:48:54.954Z,672
2017-09-13T04:50:04.984Z,704
2017-09-13T04:51:15.341Z,744
2017-09-13T04:52:25.702Z,760
2017-09-13T04:53:39.583Z,808
2017-09-13T04:54:50.111Z,852
2017-09-13T04:56:00.439Z,860
2017-09-13T04:57:13.179Z,876
2017-09-13T04:58:23.519Z,904
2017-09-13T04:59:33.910Z,928
2017-09-13T05:00:44.456Z,964
2017-09-13T05:01:54.788Z,996
2017-09-13T05:03:05.138Z,1028
2017-09-13T05:04:15.162Z,1064
2017-09-13T05:05:40.110Z,1120
2017-09-13T05:06:50.475Z,1172
2017-09-13T05:08:00.498Z,1196
2017-09-13T05:09:10.848Z,1216
2017-09-13T05:10:21.399Z,1252
2017-09-13T05:11:31.791Z,1288
2017-09-13T05:12:42.123Z,1308
2017-09-13T05:13:52.485Z,1336
2017-09-13T05:15:02.854Z,1352
2017-09-13T05:16:13.211Z,1384
2017-09-13T05:17:23.536Z,1412
2017-09-13T05:18:33.874Z,1436
2017-09-13T05:19:44.204Z,1464
2017-09-13T05:20:54.231Z,1492
2017-09-13T05:22:03.947Z,1520
2017-09-13T05:23:14.333Z,1548
2017-09-13T05:24:24.346Z,1592
2017-09-13T05:25:34.377Z,1624
2017-09-13T05:26:44.430Z,1640
2017-09-13T05:27:54.780Z,1664
2017-09-13T05:29:05.162Z,1692
2017-09-13T05:30:15.508Z,1716
2017-09-13T05:31:25.533Z,1744
2017-09-13T05:32:37.319Z,1772
2017-09-13T05:33:47.655Z,1916
2017-09-13T05:34:56.732Z,2408
2017-09-13T05:36:07.060Z,2800
2017-09-13T05:37:17.099Z,2612
2017-09-13T05:38:27.429Z,2032
2017-09-13T05:39:37.754Z,1896
2017-09-13T05:40:52.055Z,2140
2017-09-13T05:42:02.098Z,2452
2017-09-13T05:43:12.446Z,2724
2017-09-13T05:44:22.801Z,2588
2017-09-13T05:45:35.122Z,2240
2017-09-13T05:46:45.524Z,2036
2017-09-13T05:47:55.876Z,2052
2017-09-13T05:49:06.240Z,2392
2017-09-13T05:50:16.794Z,2400
2017-09-13T05:51:26.816Z,2100
2017-09-13T05:52:37.217Z,2084
2017-09-13T05:53:47.539Z,2076
2017-09-13T05:54:57.908Z,2092
2017-09-13T05:56:08.254Z,2108
2017-09-13T05:57:17.960Z,2128
2017-09-13T05:58:35.385Z,2144
2017-09-13T05:59:45.749Z,2164
2017-09-13T06:00:56.091Z,2184
2017-09-13T06:02:06.432Z,2200
2017-09-13T06:03:16.156Z,2216
2017-09-13T06:04:26.189Z,2236
2017-09-13T06:05:36.528Z,2252
2017-09-13T06:06:46.855Z,2264
2017-09-13T06:07:57.217Z,2288
2017-09-13T06:09:07.235Z,2308
2017-09-13T06:10:17.596Z,2336
2017-09-13T06:11:27.954Z,2364
2017-09-13T06:12:45.999Z,2392
2017-09-13T06:13:56.353Z,2420
2017-09-13T06:15:06.069Z,2452
2017-09-13T06:16:16.139Z,2476
2017-09-13T06:17:26.166Z,2508
2017-09-13T06:18:38.157Z,2532
2017-09-13T06:19:48.502Z,2560
2017-09-13T06:20:58.843Z,2584
2017-09-13T06:22:09.178Z,2620
2017-09-13T06:23:19.212Z,2636
2017-09-13T06:24:29.567Z,2664
2017-09-13T06:25:39.932Z,2680
2017-09-13T06:26:50.273Z,2716
2017-09-13T06:28:00.657Z,2744
2017-09-13T06:29:10.992Z,2764
2017-09-13T06:30:21.015Z,2788
2017-09-13T06:31:31.057Z,2812
2017-09-13T06:32:41.394Z,2828
2017-09-13T06:33:51.735Z,2848
2017-09-13T06:35:01.765Z,2860
2017-09-13T06:36:12.123Z,2876
2017-09-13T06:37:22.147Z,2904
2017-09-13T06:38:32.487Z,2924
2017-09-13T06:39:42.832Z,2936
2017-09-13T06:40:52.851Z,2968
2017-09-13T06:42:03.200Z,2988
2017-09-13T06:43:17.654Z,3008
2017-09-13T06:44:27.369Z,3020
2017-09-13T06:45:37.719Z,3032
2017-09-13T06:46:47.756Z,3052
2017-09-13T06:47:58.126Z,3076
2017-09-13T06:49:08.714Z,3096
2017-09-13T06:50:19.055Z,3108
2017-09-13T06:51:29.129Z,3144
2017-09-13T06:52:39.160Z,3164
2017-09-13T06:53:52.367Z,3156
2017-09-13T06:55:02.788Z,3156
2017-09-13T06:56:15.547Z,3176
2017-09-13T06:57:25.573Z,3224
2017-09-13T06:58:35.604Z,3236
2017-09-13T06:59:45.961Z,3240
2017-09-13T07:00:56.326Z,3252
2017-09-13T07:02:06.697Z,3280
2017-09-13T07:03:17.046Z,3296
2017-09-13T07:04:27.391Z,3304
2017-09-13T07:05:37.423Z,3336
2017-09-13T07:06:47.775Z,3352
2017-09-13T07:07:58.139Z,3376
2017-09-13T07:09:08.539Z,3408
2017-09-13T07:10:18.888Z,3420
2017-09-13T07:11:29.232Z,3460
2017-09-13T07:12:39.606Z,3468
2017-09-13T07:13:49.655Z,3492
2017-09-13T07:14:59.742Z,3508
2017-09-13T07:16:10.090Z,3520
2017-09-13T07:17:20.143Z,3496
2017-09-13T07:18:30.178Z,3520
2017-09-13T07:19:40.205Z,3576
2017-09-13T07:20:50.566Z,3600
2017-09-13T07:22:00.910Z,3624
2017-09-13T07:23:10.627Z,3656
2017-09-13T07:24:20.978Z,3676
2017-09-13T07:25:31.011Z,3708
2017-09-13T07:26:41.406Z,3720
2017-09-13T07:27:51.432Z,3760
2017-09-13T07:29:01.465Z,3776
2017-09-13T07:30:11.836Z,3808
2017-09-13T07:31:21.859Z,3832
2017-09-13T07:32:32.240Z,3868
2017-09-13T07:33:42.599Z,3892
2017-09-13T07:34:52.938Z,3924
2017-09-13T07:36:02.969Z,3940
2017-09-13T07:37:13.015Z,3968
2017-09-13T07:38:23.404Z,4000
2017-09-13T07:39:33.966Z,4020
2017-09-13T07:40:44.375Z,4052
2017-09-13T07:41:54.731Z,4052
2017-09-13T07:43:05.087Z,4100
2017-09-13T07:44:15.483Z,4128
2017-09-13T07:45:25.840Z,4156
2017-09-13T07:46:35.873Z,4180
2017-09-13T07:47:46.207Z,4192
2017-09-13T07:48:56.249Z,4216
2017-09-13T07:50:08.035Z,4236
2017-09-13T07:51:18.412Z,4212
2017-09-13T07:52:28.766Z,4288
2017-09-13T07:53:39.117Z,4308
2017-09-13T07:54:49.457Z,4336
2017-09-13T07:55:59.869Z,4360
2017-09-13T07:57:10.213Z,4392
2017-09-13T07:58:20.564Z,4412
2017-09-13T07:59:32.829Z,4436
2017-09-13T08:00:43.184Z,4456
2017-09-13T08:01:53.283Z,4480
2017-09-13T08:03:03.630Z,4508
2017-09-13T08:04:13.977Z,4532
2017-09-13T08:05:24.320Z,4536
2017-09-13T08:06:34.661Z,4572
2017-09-13T08:07:44.688Z,4604
2017-09-13T08:08:54.709Z,4620
2017-09-13T08:10:05.060Z,4644
2017-09-13T08:11:15.416Z,4672
2017-09-13T08:12:25.774Z,4692
2017-09-13T08:13:36.176Z,4740
2017-09-13T08:14:46.542Z,4760
2017-09-13T08:15:56.594Z,4792
2017-09-13T08:17:06.959Z,4820
2017-09-13T08:18:16.974Z,4824
2017-09-13T08:19:31.803Z,4852
2017-09-13T08:20:42.153Z,4876
2017-09-13T08:21:52.495Z,4892
2017-09-13T08:23:01.876Z,4920
2017-09-13T08:24:12.227Z,4940
2017-09-13T08:25:22.586Z,4960
2017-09-13T08:26:32.612Z,4992
2017-09-13T08:27:42.969Z,5020
2017-09-13T08:28:53.339Z,5036
2017-09-13T08:30:03.378Z,5064
2017-09-13T08:31:13.772Z,5076
2017-09-13T08:32:23.791Z,5096
2017-09-13T08:33:34.130Z,5128
2017-09-13T08:34:44.167Z,5152
2017-09-13T08:35:54.517Z,5184
2017-09-13T08:37:04.858Z,5220
2017-09-13T08:38:15.208Z,5252
2017-09-13T08:39:25.563Z,5268
2017-09-13T08:40:35.952Z,5272
2017-09-13T08:41:46.330Z,5308
2017-09-13T08:42:56.730Z,5304
2017-09-13T08:44:07.094Z,5316
2017-09-13T08:45:17.461Z,5328
2017-09-13T08:46:30.153Z,5348
2017-09-13T08:47:39.886Z,5360
2017-09-13T08:48:52.932Z,5388
2017-09-13T08:50:03.321Z,5396
2017-09-13T08:51:13.712Z,5408
2017-09-13T08:52:24.508Z,5428
2017-09-13T08:53:35.135Z,5436
2017-09-13T08:54:45.545Z,5460
2017-09-13T08:55:55.921Z,5484
2017-09-13T08:57:06.336Z,5500
2017-09-13T08:58:16.736Z,5524
2017-09-13T08:59:26.473Z,5544
2017-09-13T09:00:36.922Z,5564
2017-09-13T09:01:47.005Z,5584
2017-09-13T09:02:57.450Z,5600
2017-09-13T09:04:07.824Z,5624
2017-09-13T09:05:17.916Z,5656
2017-09-13T09:06:28.036Z,5692
2017-09-13T09:07:38.490Z,5736
2017-09-13T09:08:49.305Z,5764
2017-09-13T09:10:00.725Z,5800
2017-09-13T09:11:17.296Z,5840
2017-09-13T09:12:27.059Z,5900
2017-09-13T09:13:37.503Z,5960
2017-09-13T09:14:47.993Z,6032
2017-09-13T09:15:58.102Z,6104
2017-09-13T09:17:08.478Z,6248
2017-09-13T09:18:22.088Z,6352
2017-09-13T09:19:32.243Z,6452
2017-09-13T09:20:42.439Z,6440
2017-09-13T09:21:52.886Z,6384
2017-09-13T09:23:03.032Z,6276
2017-09-13T09:24:14.504Z,6176
2017-09-13T09:25:24.901Z,6080
2017-09-13T09:26:35.287Z,6048
2017-09-13T09:27:45.327Z,6040
2017-09-13T09:28:55.380Z,6072
2017-09-13T09:30:05.743Z,6108
2017-09-13T09:31:16.088Z,6104
2017-09-13T09:32:26.440Z,6096
2017-09-13T09:33:36.792Z,6076
2017-09-13T09:34:47.059Z,6120
2017-09-13T09:35:57.074Z,6132
2017-09-13T09:37:07.433Z,6148
2017-09-13T09:38:17.497Z,6168
2017-09-13T09:39:29.963Z,6176
2017-09-13T09:40:41.869Z,6192
2017-09-13T09:41:51.629Z,6256
2017-09-13T09:43:01.992Z,6232
2017-09-13T09:44:12.037Z,6252
2017-09-13T09:45:22.405Z,6264
2017-09-13T09:46:32.813Z,6264
2017-09-13T09:47:42.878Z,6276
2017-09-13T09:48:53.263Z,6292
2017-09-13T09:50:03.626Z,6324
2017-09-13T09:51:13.974Z,6336
2017-09-13T09:52:24.048Z,6368
2017-09-13T09:53:34.875Z,6360
2017-09-13T09:54:48.445Z,6372
2017-09-13T09:55:58.795Z,6408
2017-09-13T09:57:08.839Z,6448
2017-09-13T09:58:19.194Z,6492
2017-09-13T09:59:29.531Z,6552
2017-09-13T10:00:39.890Z,6664
2017-09-13T10:01:49.920Z,6756
2017-09-13T10:03:00.282Z,6828
2017-09-13T10:04:10.688Z,6984
2017-09-13T10:05:21.032Z,7148
2017-09-13T10:06:31.377Z,7280
2017-09-13T10:07:46.533Z,7364
2017-09-13T10:08:56.892Z,7664
2017-09-13T10:10:07.318Z,7932
2017-09-13T10:11:17.063Z,8228
2017-09-13T10:12:27.095Z,7948
2017-09-13T10:13:37.154Z,8072
2017-09-13T10:14:47.520Z,8240
2017-09-13T10:15:57.866Z,6816
2017-09-13T10:17:08.224Z,9008
2017-09-13T10:18:18.811Z,7192
2017-09-13T10:19:29.173Z,7800
2017-09-13T10:20:39.537Z,7636
2017-09-13T10:21:49.588Z,7116
2017-09-13T10:22:59.637Z,6764
2017-09-13T10:24:09.670Z,6532
2017-09-13T10:25:20.025Z,6068
2017-09-13T10:26:30.388Z,5648
2017-09-13T10:27:40.421Z,5268
2017-09-13T10:28:50.783Z,4836
2017-09-13T10:30:01.142Z,4452
2017-09-13T10:31:11.514Z,4208
2017-09-13T10:32:21.877Z,4168
2017-09-13T10:33:32.303Z,4380
2017-09-13T10:34:42.665Z,5184
2017-09-13T10:35:53.009Z,5540
2017-09-13T10:37:03.053Z,6444
2017-09-13T10:38:13.403Z,7064
2017-09-13T10:39:23.499Z,6972
2017-09-13T10:40:34.039Z,7060
2017-09-13T10:41:44.396Z,7012
2017-09-13T10:42:54.787Z,7028
2017-09-13T10:44:05.130Z,7064
2017-09-13T10:45:15.213Z,7148
2017-09-13T10:46:25.586Z,7316
2017-09-13T10:47:35.621Z,7272
2017-09-13T10:48:45.663Z,7320
2017-09-13T10:49:55.686Z,7408
2017-09-13T10:51:06.049Z,7436
2017-09-13T10:52:16.398Z,7764
2017-09-13T10:53:26.753Z,5648
2017-09-13T10:54:36.803Z,7292
2017-09-13T10:55:46.844Z,8676
2017-09-13T10:56:56.917Z,8444
2017-09-13T10:58:08.832Z,5172
2017-09-13T10:59:18.893Z,5104
2017-09-13T11:00:29.259Z,5832
2017-09-13T11:01:39.653Z,6028
2017-09-13T11:02:50.058Z,5452
2017-09-13T11:04:00.699Z,5296
2017-09-13T11:05:10.728Z,5584
2017-09-13T11:06:20.768Z,6568
2017-09-13T11:07:31.347Z,9320
2017-09-13T11:08:41.449Z,7244
2017-09-13T11:09:51.803Z,6672
2017-09-13T11:11:01.848Z,6876
2017-09-13T11:12:12.222Z,6836
2017-09-13T11:13:22.584Z,6936
2017-09-13T11:14:32.921Z,6940
2017-09-13T11:15:43.315Z,6980
2017-09-13T11:16:53.680Z,7448
2017-09-13T11:18:04.020Z,8052
2017-09-13T11:19:14.070Z,9700
2017-09-13T11:20:23.840Z,8296
2017-09-13T11:21:33.874Z,7276
2017-09-13T11:22:44.235Z,7136
2017-09-13T11:23:54.602Z,7680
2017-09-13T11:25:04.645Z,7728
2017-09-13T11:26:15.005Z,6988
2017-09-13T11:27:24.723Z,7940
2017-09-13T11:28:34.784Z,7964
2017-09-13T11:29:45.148Z,7996
2017-09-13T11:30:55.507Z,6580
2017-09-13T11:32:05.907Z,6816
2017-09-13T11:33:15.956Z,7792
2017-09-13T11:34:26.320Z,6148
2017-09-13T11:35:36.688Z,6900
2017-09-13T11:36:46.735Z,6016
2017-09-13T11:37:57.107Z,6000
2017-09-13T11:39:07.464Z,5944
2017-09-13T11:40:16.864Z,5784
2017-09-13T11:41:27.273Z,5652
2017-09-13T11:42:37.630Z,5652
2017-09-13T11:43:48.050Z,5680
2017-09-13T11:44:58.097Z,5888
2017-09-13T11:46:08.139Z,6400
2017-09-13T11:47:18.502Z,6992
2017-09-13T11:48:28.858Z,6764
2017-09-13T11:49:39.222Z,6572
2017-09-13T11:50:49.600Z,6560
2017-09-13T11:51:59.951Z,6152
2017-09-13T11:53:10.300Z,5800
2017-09-13T11:54:20.028Z,6048
2017-09-13T11:55:30.459Z,6516
2017-09-13T11:56:40.518Z,6144
2017-09-13T11:57:50.868Z,6100
2017-09-13T11:59:01.215Z,6404
2017-09-13T12:00:11.577Z,6188
2017-09-13T12:01:22.081Z,6344
2017-09-13T12:02:32.682Z,6056
2017-09-13T12:03:43.044Z,5908
2017-09-13T12:04:53.421Z,5896
2017-09-13T12:06:03.774Z,5636
2017-09-13T12:07:13.875Z,5720
2017-09-13T12:08:23.923Z,6248
2017-09-13T12:09:34.279Z,6348
2017-09-13T12:10:44.631Z,6612
2017-09-13T12:11:54.677Z,6816
2017-09-13T12:13:05.029Z,6972
2017-09-13T12:14:15.075Z,6964
2017-09-13T12:15:26.179Z,8584
2017-09-13T12:16:36.542Z,9096
2017-09-13T12:17:46.918Z,10056
2017-09-13T12:18:58.824Z,9868
2017-09-13T12:20:09.211Z,9768
2017-09-13T12:21:19.272Z,9976
2017-09-13T12:22:29.634Z,8192
2017-09-13T12:23:39.674Z,9800
2017-09-13T12:24:50.112Z,8684
2017-09-13T12:26:00.474Z,6736
2017-09-13T12:27:10.548Z,6704
2017-09-13T12:28:20.912Z,7792
2017-09-13T12:29:30.987Z,6528
2017-09-13T12:30:41.405Z,6568
2017-09-13T12:31:51.774Z,6696
2017-09-13T12:33:02.132Z,6700
2017-09-13T12:34:12.174Z,6916
2017-09-13T12:35:21.917Z,7592
2017-09-13T12:36:32.340Z,7740
2017-09-13T12:37:42.697Z,6696
2017-09-13T12:38:53.059Z,5756
2017-09-13T12:40:03.413Z,5292
2017-09-13T12:41:13.785Z,4876
2017-09-13T12:42:23.898Z,4720
2017-09-13T12:43:34.266Z,4760
2017-09-13T12:44:44.302Z,4984
2017-09-13T12:45:54.684Z,5252
2017-09-13T12:47:05.045Z,5604
2017-09-13T12:48:14.832Z,6040
2017-09-13T12:49:25.186Z,5944
2017-09-13T12:50:35.464Z,5828
2017-09-13T12:51:46.072Z,5716
2017-09-13T12:52:56.126Z,5536
2017-09-13T12:54:06.525Z,5752
2017-09-13T12:55:16.583Z,5748
2017-09-13T12:56:26.893Z,5496
2017-09-13T12:57:37.196Z,5644
2017-09-13T12:58:47.651Z,4848
2017-09-13T12:59:57.425Z,4044
2017-09-13T13:01:07.794Z,3596
2017-09-13T13:02:17.844Z,3164
2017-09-13T13:03:28.186Z,2896
2017-09-13T13:04:38.527Z,2784
2017-09-13T13:05:48.625Z,2804
2017-09-13T13:06:59.002Z,2720
2017-09-13T13:08:09.369Z,2564
2017-09-13T13:09:19.734Z,2480
2017-09-13T13:10:29.757Z,2544
2017-09-13T13:11:40.125Z,2780
2017-09-13T13:12:50.508Z,3176
2017-09-13T13:14:00.537Z,3692
2017-09-13T13:15:10.590Z,4288
2017-09-13T13:16:20.976Z,4884
2017-09-13T13:17:31.397Z,5260
2017-09-13T13:18:41.790Z,5628
2017-09-13T13:19:52.159Z,5384
2017-09-13T13:21:02.514Z,5068
2017-09-13T13:22:12.545Z,4860
2017-09-13T13:23:23.049Z,4788
2017-09-13T13:24:33.405Z,4824
2017-09-13T13:25:43.777Z,4932
2017-09-13T13:26:54.133Z,5000
2017-09-13T13:28:04.538Z,5016
2017-09-13T13:29:14.962Z,4964
2017-09-13T13:30:25.317Z,4792
2017-09-13T13:31:36.379Z,4520
2017-09-13T13:32:46.736Z,4248
2017-09-13T13:33:56.812Z,4044
2017-09-13T13:35:07.270Z,3992
2017-09-13T13:36:17.644Z,3864
2017-09-13T13:37:27.700Z,3684
2017-09-13T13:38:38.057Z,3492
2017-09-13T13:39:48.432Z,3304
2017-09-13T13:40:58.856Z,3160
2017-09-13T13:42:08.883Z,3088
2017-09-13T13:43:18.930Z,3056
2017-09-13T13:44:28.992Z,3012
2017-09-13T13:45:39.048Z,2900
2017-09-13T13:46:49.399Z,2724
2017-09-13T13:47:59.773Z,2588
2017-09-13T13:49:10.116Z,2560
2017-09-13T13:50:20.457Z,2624
2017-09-13T13:51:30.816Z,2688
2017-09-13T13:52:41.214Z,2600
2017-09-13T13:53:53.779Z,2404
2017-09-13T13:55:04.148Z,2256
2017-09-13T13:56:14.187Z,2224
2017-09-13T13:57:24.532Z,2256
2017-09-13T13:58:34.952Z,2316
2017-09-13T13:59:45.324Z,2364
2017-09-13T14:00:55.873Z,2420
2017-09-13T14:02:05.917Z,2504
2017-09-13T14:03:15.959Z,2456
2017-09-13T14:04:26.379Z,2264
2017-09-13T14:05:36.760Z,2088
2017-09-13T14:06:46.783Z,1924
2017-09-13T14:07:56.858Z,1788
2017-09-13T14:09:07.231Z,1672
2017-09-13T14:10:17.343Z,1624
2017-09-13T14:11:27.396Z,1576
2017-09-13T14:12:37.757Z,1484
2017-09-13T14:13:47.477Z,1432
2017-09-13T14:14:57.537Z,1432
2017-09-13T14:16:07.950Z,1432
2017-09-13T14:17:18.515Z,1400
2017-09-13T14:18:28.595Z,1364
2017-09-13T14:19:38.643Z,1312
2017-09-13T14:20:50.897Z,1236
2017-09-13T14:22:01.516Z,1216
2017-09-13T14:23:11.882Z,1232
2017-09-13T14:24:22.239Z,1212
2017-09-13T14:25:32.286Z,1188
2017-09-13T14:26:42.324Z,1148
2017-09-13T14:27:52.424Z,1108
2017-09-13T14:29:02.784Z,1060
2017-09-13T14:30:13.211Z,992
2017-09-13T14:31:23.233Z,940
2017-09-13T14:32:33.281Z,888
2017-09-13T14:33:43.361Z,852
2017-09-13T14:34:53.726Z,828
2017-09-13T14:36:03.459Z,804
2017-09-13T14:37:13.867Z,788
2017-09-13T14:38:23.923Z,788
2017-09-13T14:39:34.005Z,784
2017-09-13T14:40:44.055Z,772
2017-09-13T14:41:54.105Z,748
2017-09-13T14:43:04.475Z,720
2017-09-13T14:44:14.821Z,716
2017-09-13T14:45:24.938Z,712
2017-09-13T14:46:35.306Z,708
2017-09-13T14:47:45.673Z,680
2017-09-13T14:48:55.718Z,672
2017-09-13T14:50:06.066Z,716
2017-09-13T14:51:16.478Z,788
2017-09-13T14:52:26.520Z,892
2017-09-13T14:53:36.891Z,1024
2017-09-13T14:54:47.269Z,1148
2017-09-13T14:55:57.364Z,1208
2017-09-13T14:57:07.436Z,1232
2017-09-13T14:58:17.819Z,1260
2017-09-13T14:59:28.180Z,1332
2017-09-13T15:00:38.523Z,1368
2017-09-13T15:01:48.555Z,1324
2017-09-13T15:02:58.979Z,1268
2017-09-13T15:04:09.337Z,1192
2017-09-13T15:05:19.086Z,1088
2017-09-13T15:06:29.186Z,988
2017-09-13T15:07:39.563Z,928
2017-09-13T15:08:49.899Z,908
2017-09-13T15:10:00.265Z,900
2017-09-13T15:11:10.014Z,904
2017-09-13T15:12:20.374Z,948
2017-09-13T15:13:33.093Z,1016
2017-09-13T15:14:43.162Z,1052
2017-09-13T15:15:53.510Z,1048
2017-09-13T15:17:03.552Z,1056
2017-09-13T15:18:13.903Z,1120
2017-09-13T15:19:24.265Z,1180
2017-09-13T15:20:34.660Z,1120
2017-09-13T15:21:44.709Z,1024
2017-09-13T15:22:55.099Z,972
2017-09-13T15:24:05.449Z,900
2017-09-13T15:25:15.800Z,804
2017-09-13T15:26:26.209Z,728
2017-09-13T15:27:36.248Z,664
2017-09-13T15:28:46.596Z,624
2017-09-13T15:29:57.648Z,632
2017-09-13T15:31:08.048Z,652
2017-09-13T15:32:18.438Z,680
2017-09-13T15:33:28.792Z,668
2017-09-13T15:34:38.873Z,628
2017-09-13T15:35:49.240Z,588
2017-09-13T15:36:59.624Z,584
2017-09-13T15:38:10.179Z,628
2017-09-13T15:39:19.897Z,660
2017-09-13T15:40:30.236Z,648
2017-09-13T15:41:40.280Z,624
2017-09-13T15:42:50.332Z,628
2017-09-13T15:44:00.412Z,612
2017-09-13T15:45:11.012Z,528
2017-09-13T15:46:21.382Z,456
2017-09-13T15:47:31.756Z,416
2017-09-13T15:48:42.129Z,384
2017-09-13T15:49:52.223Z,360
2017-09-13T15:51:02.601Z,348
2017-09-13T15:52:12.960Z,332
2017-09-13T15:53:23.314Z,308
2017-09-13T15:54:33.699Z,280
2017-09-13T15:55:43.837Z,260
2017-09-13T15:56:54.182Z,248
2017-09-13T15:58:04.544Z,240
2017-09-13T15:59:14.888Z,240
2017-09-13T16:00:25.258Z,240
2017-09-13T16:01:35.358Z,236
2017-09-13T16:02:45.710Z,236
2017-09-13T16:03:56.081Z,240
2017-09-13T16:05:06.434Z,244
2017-09-13T16:06:16.803Z,244
2017-09-13T16:07:27.311Z,244
2017-09-13T16:08:37.664Z,236
2017-09-13T16:09:48.265Z,228
2017-09-13T16:10:58.306Z,216
2017-09-13T16:12:08.687Z,196
2017-09-13T16:13:19.149Z,180
2017-09-13T16:14:29.210Z,172
2017-09-13T16:15:39.258Z,164
2017-09-13T16:16:48.994Z,164
2017-09-13T16:17:58.717Z,168
2017-09-13T16:19:09.111Z,168
2017-09-13T16:20:19.062Z,168
2017-09-13T16:21:29.424Z,172
2017-09-13T16:22:39.779Z,176
2017-09-13T16:23:50.156Z,184
2017-09-13T16:25:00.570Z,180
2017-09-13T16:26:10.597Z,180
2017-09-13T16:27:20.953Z,168
2017-09-13T16:28:31.047Z,152
2017-09-13T16:29:41.087Z,140
2017-09-13T16:30:51.495Z,128
2017-09-13T16:32:01.884Z,116
2017-09-13T16:33:11.911Z,100
2017-09-13T16:34:22.287Z,92
2017-09-13T16:35:32.651Z,92